sensor_id;sensor_type;location;lat;lon;timestamp;P1;durP1;ratioP1;P2;durP2;ratioP2
64641;SDS011;59936;51.490;5.436;2022-11-15T00:03:15;25.60;;;14.40;;
64641;SDS011;59936;51.490;5.436;2022-11-15T00:08:22;28.63;;;14.95;;
64641;SDS011;59936;51.490;5.436;2022-11-15T00:13:24;28.83;;;15.00;;
64641;SDS011;59936;51.490;5.436;2022-11-15T00:18:27;24.23;;;15.05;;
64641;SDS011;59936;51.490;5.436;2022-11-15T00:23:32;25.73;;;15.00;;
64641;SDS011;59936;51.490;5.436;2022-11-15T00:28:34;27.45;;;16.08;;
64641;SDS011;59936;51.490;5.436;2022-11-15T00:33:37;23.48;;;14.45;;
64641;SDS011;59936;51.490;5.436;2022-11-15T00:38:41;23.67;;;14.18;;
64641;SDS011;59936;51.490;5.436;2022-11-15T00:43:44;24.10;;;14.48;;
64641;SDS011;59936;51.490;5.436;2022-11-15T00:48:46;24.83;;;14.82;;
64641;SDS011;59936;51.490;5.436;2022-11-15T00:53:49;21.75;;;13.95;;
64641;SDS011;59936;51.490;5.436;2022-11-15T00:58:50;23.70;;;14.45;;
64641;SDS011;59936;51.490;5.436;2022-11-15T01:03:54;23.45;;;14.63;;
64641;SDS011;59936;51.490;5.436;2022-11-15T01:08:57;19.48;;;13.73;;
64641;SDS011;59936;51.490;5.436;2022-11-15T01:14:00;20.77;;;13.55;;
64641;SDS011;59936;51.490;5.436;2022-11-15T01:19:02;20.60;;;12.13;;
64641;SDS011;59936;51.490;5.436;2022-11-15T01:29:12;19.77;;;12.57;;
64641;SDS011;59936;51.490;5.436;2022-11-15T01:34:15;17.20;;;12.07;;
64641;SDS011;59936;51.490;5.436;2022-11-15T01:39:18;16.08;;;11.38;;
64641;SDS011;59936;51.490;5.436;2022-11-15T01:44:40;20.10;;;12.48;;
64641;SDS011;59936;51.490;5.436;2022-11-15T01:49:49;18.15;;;12.27;;
64641;SDS011;59936;51.490;5.436;2022-11-15T01:55:02;18.23;;;12.00;;
64641;SDS011;59936;51.490;5.436;2022-11-15T02:00:11;19.85;;;11.93;;
64641;SDS011;59936;51.490;5.436;2022-11-15T02:05:14;19.75;;;13.30;;
64641;SDS011;59936;51.490;5.436;2022-11-15T02:10:19;19.40;;;12.75;;
64641;SDS011;59936;51.490;5.436;2022-11-15T02:15:24;18.27;;;12.70;;
64641;SDS011;59936;51.490;5.436;2022-11-15T02:20:42;20.35;;;13.02;;
64641;SDS011;59936;51.490;5.436;2022-11-15T02:26:07;16.95;;;12.63;;
64641;SDS011;59936;51.490;5.436;2022-11-15T02:31:38;17.88;;;12.82;;
64641;SDS011;59936;51.490;5.436;2022-11-15T02:36:53;19.50;;;12.63;;
64641;SDS011;59936;51.490;5.436;2022-11-15T02:42:07;21.80;;;13.88;;
64641;SDS011;59936;51.490;5.436;2022-11-15T02:47:31;18.70;;;12.65;;
64641;SDS011;59936;51.490;5.436;2022-11-15T02:52:40;18.73;;;12.98;;
64641;SDS011;59936;51.490;5.436;2022-11-15T02:57:49;20.02;;;12.57;;
64641;SDS011;59936;51.490;5.436;2022-11-15T03:03:07;20.10;;;13.93;;
64641;SDS011;59936;51.490;5.436;2022-11-15T03:08:29;20.00;;;13.48;;
64641;SDS011;59936;51.490;5.436;2022-11-15T03:13:39;17.13;;;13.18;;
64641;SDS011;59936;51.490;5.436;2022-11-15T03:18:52;20.48;;;13.90;;
64641;SDS011;59936;51.490;5.436;2022-11-15T03:24:00;17.95;;;12.40;;
64641;SDS011;59936;51.490;5.436;2022-11-15T03:29:07;20.83;;;13.88;;
64641;SDS011;59936;51.490;5.436;2022-11-15T03:34:20;21.55;;;14.23;;
64641;SDS011;59936;51.490;5.436;2022-11-15T03:39:30;24.88;;;15.23;;
64641;SDS011;59936;51.490;5.436;2022-11-15T03:44:34;24.42;;;15.07;;
64641;SDS011;59936;51.490;5.436;2022-11-15T03:49:49;22.85;;;15.75;;
64641;SDS011;59936;51.490;5.436;2022-11-15T03:54:56;24.65;;;17.00;;
64641;SDS011;59936;51.490;5.436;2022-11-15T04:00:02;24.00;;;14.73;;
64641;SDS011;59936;51.490;5.436;2022-11-15T04:05:06;25.30;;;16.02;;
64641;SDS011;59936;51.490;5.436;2022-11-15T04:10:09;30.60;;;16.73;;
64641;SDS011;59936;51.490;5.436;2022-11-15T04:15:13;30.17;;;16.63;;
64641;SDS011;59936;51.490;5.436;2022-11-15T04:20:20;27.52;;;16.63;;
64641;SDS011;59936;51.490;5.436;2022-11-15T04:25:41;27.90;;;16.52;;
64641;SDS011;59936;51.490;5.436;2022-11-15T04:30:43;30.55;;;15.70;;
64641;SDS011;59936;51.490;5.436;2022-11-15T04:35:47;28.92;;;16.10;;
64641;SDS011;59936;51.490;5.436;2022-11-15T04:41:03;25.27;;;17.05;;
64641;SDS011;59936;51.490;5.436;2022-11-15T04:51:09;27.15;;;16.38;;
64641;SDS011;59936;51.490;5.436;2022-11-15T04:56:12;26.35;;;16.38;;
64641;SDS011;59936;51.490;5.436;2022-11-15T05:01:14;25.00;;;15.85;;
64641;SDS011;59936;51.490;5.436;2022-11-15T05:06:18;29.38;;;17.60;;
64641;SDS011;59936;51.490;5.436;2022-11-15T05:11:20;29.17;;;18.17;;
64641;SDS011;59936;51.490;5.436;2022-11-15T05:16:21;30.27;;;17.67;;
64641;SDS011;59936;51.490;5.436;2022-11-15T05:21:25;30.55;;;16.65;;
64641;SDS011;59936;51.490;5.436;2022-11-15T05:26:27;24.48;;;15.38;;
64641;SDS011;59936;51.490;5.436;2022-11-15T05:31:29;26.48;;;15.65;;
64641;SDS011;59936;51.490;5.436;2022-11-15T05:36:33;24.50;;;14.55;;
64641;SDS011;59936;51.490;5.436;2022-11-15T05:41:39;24.40;;;14.52;;
64641;SDS011;59936;51.490;5.436;2022-11-15T05:46:45;23.25;;;15.40;;
64641;SDS011;59936;51.490;5.436;2022-11-15T05:51:51;23.27;;;14.18;;
64641;SDS011;59936;51.490;5.436;2022-11-15T05:56:55;21.60;;;15.55;;
64641;SDS011;59936;51.490;5.436;2022-11-15T06:01:56;21.55;;;13.32;;
64641;SDS011;59936;51.490;5.436;2022-11-15T06:06:59;22.20;;;14.82;;
64641;SDS011;59936;51.490;5.436;2022-11-15T06:12:01;23.30;;;15.18;;
64641;SDS011;59936;51.490;5.436;2022-11-15T06:17:03;24.05;;;14.13;;
64641;SDS011;59936;51.490;5.436;2022-11-15T06:22:06;24.20;;;15.55;;
64641;SDS011;59936;51.490;5.436;2022-11-15T06:27:10;20.55;;;15.52;;
64641;SDS011;59936;51.490;5.436;2022-11-15T06:32:12;23.95;;;15.68;;
64641;SDS011;59936;51.490;5.436;2022-11-15T06:37:15;19.80;;;13.00;;
64641;SDS011;59936;51.490;5.436;2022-11-15T06:42:16;21.05;;;13.20;;
64641;SDS011;59936;51.490;5.436;2022-11-15T06:47:19;18.60;;;12.02;;
64641;SDS011;59936;51.490;5.436;2022-11-15T06:52:22;19.85;;;12.02;;
64641;SDS011;59936;51.490;5.436;2022-11-15T06:57:24;20.73;;;12.40;;
64641;SDS011;59936;51.490;5.436;2022-11-15T07:02:25;20.45;;;11.77;;
64641;SDS011;59936;51.490;5.436;2022-11-15T07:07:29;15.93;;;11.07;;
64641;SDS011;59936;51.490;5.436;2022-11-15T07:12:30;18.83;;;11.85;;
64641;SDS011;59936;51.490;5.436;2022-11-15T07:17:33;22.90;;;12.18;;
64641;SDS011;59936;51.490;5.436;2022-11-15T07:22:36;20.75;;;11.73;;
64641;SDS011;59936;51.490;5.436;2022-11-15T07:27:38;22.02;;;11.20;;
64641;SDS011;59936;51.490;5.436;2022-11-15T07:32:40;20.35;;;12.02;;
64641;SDS011;59936;51.490;5.436;2022-11-15T07:37:43;20.85;;;12.82;;
64641;SDS011;59936;51.490;5.436;2022-11-15T07:42:45;19.88;;;12.05;;
64641;SDS011;59936;51.490;5.436;2022-11-15T07:47:56;21.02;;;12.25;;
64641;SDS011;59936;51.490;5.436;2022-11-15T07:52:59;21.27;;;13.38;;
64641;SDS011;59936;51.490;5.436;2022-11-15T07:58:01;22.17;;;12.48;;
64641;SDS011;59936;51.490;5.436;2022-11-15T08:03:05;23.42;;;12.05;;
64641;SDS011;59936;51.490;5.436;2022-11-15T08:08:10;16.25;;;10.43;;
64641;SDS011;59936;51.490;5.436;2022-11-15T08:13:14;16.13;;;10.70;;
64641;SDS011;59936;51.490;5.436;2022-11-15T08:18:16;18.98;;;10.82;;
64641;SDS011;59936;51.490;5.436;2022-11-15T08:28:22;13.85;;;8.40;;
64641;SDS011;59936;51.490;5.436;2022-11-15T08:33:23;15.35;;;9.10;;
64641;SDS011;59936;51.490;5.436;2022-11-15T08:38:27;10.63;;;8.38;;
64641;SDS011;59936;51.490;5.436;2022-11-15T08:43:30;14.55;;;8.40;;
64641;SDS011;59936;51.490;5.436;2022-11-15T08:48:32;8.15;;;5.63;;
64641;SDS011;59936;51.490;5.436;2022-11-15T08:53:34;9.70;;;6.82;;
64641;SDS011;59936;51.490;5.436;2022-11-15T08:58:36;11.13;;;6.80;;
64641;SDS011;59936;51.490;5.436;2022-11-15T09:08:42;7.22;;;5.18;;
64641;SDS011;59936;51.490;5.436;2022-11-15T09:13:44;5.40;;;4.45;;
64641;SDS011;59936;51.490;5.436;2022-11-15T09:18:45;5.93;;;4.40;;
64641;SDS011;59936;51.490;5.436;2022-11-15T09:23:50;4.65;;;4.03;;
64641;SDS011;59936;51.490;5.436;2022-11-15T09:28:52;4.70;;;4.00;;
64641;SDS011;59936;51.490;5.436;2022-11-15T09:33:55;6.28;;;3.40;;
64641;SDS011;59936;51.490;5.436;2022-11-15T09:38:58;3.78;;;2.90;;
64641;SDS011;59936;51.490;5.436;2022-11-15T09:44:05;5.00;;;2.85;;
64641;SDS011;59936;51.490;5.436;2022-11-15T09:49:33;2.28;;;2.05;;
64641;SDS011;59936;51.490;5.436;2022-11-15T09:54:37;2.75;;;1.90;;
64641;SDS011;59936;51.490;5.436;2022-11-15T09:59:46;2.33;;;1.80;;
64641;SDS011;59936;51.490;5.436;2022-11-15T10:05:04;3.10;;;1.70;;
64641;SDS011;59936;51.490;5.436;2022-11-15T10:10:17;3.65;;;1.80;;
64641;SDS011;59936;51.490;5.436;2022-11-15T10:15:29;3.50;;;1.35;;
64641;SDS011;59936;51.490;5.436;2022-11-15T10:20:33;4.90;;;1.40;;
64641;SDS011;59936;51.490;5.436;2022-11-15T10:25:48;4.57;;;1.65;;
64641;SDS011;59936;51.490;5.436;2022-11-15T10:30:54;3.42;;;1.40;;
64641;SDS011;59936;51.490;5.436;2022-11-15T10:36:14;4.30;;;1.40;;
64641;SDS011;59936;51.490;5.436;2022-11-15T10:41:21;2.55;;;1.50;;
64641;SDS011;59936;51.490;5.436;2022-11-15T10:46:32;5.93;;;1.50;;
64641;SDS011;59936;51.490;5.436;2022-11-15T10:51:38;4.85;;;1.67;;
64641;SDS011;59936;51.490;5.436;2022-11-15T10:56:49;1.98;;;1.50;;
64641;SDS011;59936;51.490;5.436;2022-11-15T11:01:52;6.45;;;1.77;;
64641;SDS011;59936;51.490;5.436;2022-11-15T11:06:56;5.30;;;1.73;;
64641;SDS011;59936;51.490;5.436;2022-11-15T11:12:02;4.20;;;1.90;;
64641;SDS011;59936;51.490;5.436;2022-11-15T11:17:09;3.63;;;1.80;;
64641;SDS011;59936;51.490;5.436;2022-11-15T11:22:23;7.13;;;1.85;;
64641;SDS011;59936;51.490;5.436;2022-11-15T11:27:40;4.15;;;1.65;;
64641;SDS011;59936;51.490;5.436;2022-11-15T11:33:05;4.63;;;1.63;;
64641;SDS011;59936;51.490;5.436;2022-11-15T11:38:22;3.65;;;1.73;;
64641;SDS011;59936;51.490;5.436;2022-11-15T11:43:55;5.78;;;1.90;;
64641;SDS011;59936;51.490;5.436;2022-11-15T11:49:18;3.70;;;1.90;;
64641;SDS011;59936;51.490;5.436;2022-11-15T11:54:31;4.93;;;1.33;;
64641;SDS011;59936;51.490;5.436;2022-11-15T11:59:43;3.97;;;1.50;;
64641;SDS011;59936;51.490;5.436;2022-11-15T12:04:55;3.90;;;1.73;;
64641;SDS011;59936;51.490;5.436;2022-11-15T12:10:15;3.35;;;1.23;;
64641;SDS011;59936;51.490;5.436;2022-11-15T12:20:34;3.80;;;1.50;;
64641;SDS011;59936;51.490;5.436;2022-11-15T12:25:43;4.60;;;1.70;;
64641;SDS011;59936;51.490;5.436;2022-11-15T12:30:54;4.10;;;1.35;;
64641;SDS011;59936;51.490;5.436;2022-11-15T12:36:08;2.58;;;1.42;;
64641;SDS011;59936;51.490;5.436;2022-11-15T12:41:14;7.13;;;1.42;;
64641;SDS011;59936;51.490;5.436;2022-11-15T12:46:33;3.97;;;1.30;;
64641;SDS011;59936;51.490;5.436;2022-11-15T12:52:23;4.10;;;1.40;;
64641;SDS011;59936;51.490;5.436;2022-11-15T12:57:41;2.45;;;1.50;;
64641;SDS011;59936;51.490;5.436;2022-11-15T13:02:45;3.80;;;1.50;;
64641;SDS011;59936;51.490;5.436;2022-11-15T13:07:56;4.28;;;1.10;;
64641;SDS011;59936;51.490;5.436;2022-11-15T13:12:59;2.50;;;1.37;;
64641;SDS011;59936;51.490;5.436;2022-11-15T13:23:40;6.05;;;1.50;;
64641;SDS011;59936;51.490;5.436;2022-11-15T13:28:43;4.22;;;1.70;;
64641;SDS011;59936;51.490;5.436;2022-11-15T13:33:49;6.28;;;1.77;;
64641;SDS011;59936;51.490;5.436;2022-11-15T13:38:56;6.85;;;1.92;;
64641;SDS011;59936;51.490;5.436;2022-11-15T13:44:01;3.28;;;1.27;;
64641;SDS011;59936;51.490;5.436;2022-11-15T13:49:09;2.60;;;1.50;;
64641;SDS011;59936;51.490;5.436;2022-11-15T13:54:16;4.18;;;1.35;;
64641;SDS011;59936;51.490;5.436;2022-11-15T13:59:28;2.17;;;1.48;;
64641;SDS011;59936;51.490;5.436;2022-11-15T14:04:35;7.70;;;1.70;;
64641;SDS011;59936;51.490;5.436;2022-11-15T14:09:40;5.35;;;1.52;;
64641;SDS011;59936;51.490;5.436;2022-11-15T14:14:45;4.60;;;1.30;;
64641;SDS011;59936;51.490;5.436;2022-11-15T14:19:49;1.75;;;0.75;;
64641;SDS011;59936;51.490;5.436;2022-11-15T14:25:06;2.40;;;1.23;;
64641;SDS011;59936;51.490;5.436;2022-11-15T14:30:17;4.47;;;1.40;;
64641;SDS011;59936;51.490;5.436;2022-11-15T14:35:21;2.97;;;1.40;;
64641;SDS011;59936;51.490;5.436;2022-11-15T14:40:25;1.20;;;0.90;;
64641;SDS011;59936;51.490;5.436;2022-11-15T14:45:27;4.78;;;1.45;;
64641;SDS011;59936;51.490;5.436;2022-11-15T14:50:32;3.83;;;1.75;;
64641;SDS011;59936;51.490;5.436;2022-11-15T14:55:35;6.93;;;1.90;;
64641;SDS011;59936;51.490;5.436;2022-11-15T15:00:38;3.63;;;1.60;;
64641;SDS011;59936;51.490;5.436;2022-11-15T15:05:43;4.55;;;1.63;;
64641;SDS011;59936;51.490;5.436;2022-11-15T15:10:45;6.80;;;4.32;;
64641;SDS011;59936;51.490;5.436;2022-11-15T15:15:49;6.68;;;1.75;;
64641;SDS011;59936;51.490;5.436;2022-11-15T15:20:55;7.72;;;1.65;;
64641;SDS011;59936;51.490;5.436;2022-11-15T15:26:01;4.70;;;2.10;;
64641;SDS011;59936;51.490;5.436;2022-11-15T15:31:02;5.78;;;1.92;;
64641;SDS011;59936;51.490;5.436;2022-11-15T15:41:13;2.08;;;1.80;;
64641;SDS011;59936;51.490;5.436;2022-11-15T15:46:18;5.90;;;1.88;;
64641;SDS011;59936;51.490;5.436;2022-11-15T15:51:23;4.10;;;1.85;;
64641;SDS011;59936;51.490;5.436;2022-11-15T15:56:25;4.25;;;2.40;;
64641;SDS011;59936;51.490;5.436;2022-11-15T16:01:28;3.35;;;2.10;;
64641;SDS011;59936;51.490;5.436;2022-11-15T16:06:35;7.13;;;2.65;;
64641;SDS011;59936;51.490;5.436;2022-11-15T16:11:43;4.07;;;2.28;;
64641;SDS011;59936;51.490;5.436;2022-11-15T16:16:48;4.18;;;2.30;;
64641;SDS011;59936;51.490;5.436;2022-11-15T16:21:51;4.05;;;2.88;;
64641;SDS011;59936;51.490;5.436;2022-11-15T16:26:54;9.02;;;3.70;;
64641;SDS011;59936;51.490;5.436;2022-11-15T16:31:56;4.82;;;2.75;;
64641;SDS011;59936;51.490;5.436;2022-11-15T16:36:59;3.67;;;2.97;;
64641;SDS011;59936;51.490;5.436;2022-11-15T16:42:03;6.95;;;2.97;;
64641;SDS011;59936;51.490;5.436;2022-11-15T16:47:09;4.00;;;3.10;;
64641;SDS011;59936;51.490;5.436;2022-11-15T16:52:21;4.72;;;3.20;;
64641;SDS011;59936;51.490;5.436;2022-11-15T16:57:23;3.83;;;3.25;;
64641;SDS011;59936;51.490;5.436;2022-11-15T17:02:26;3.58;;;2.70;;
64641;SDS011;59936;51.490;5.436;2022-11-15T17:07:29;4.78;;;3.30;;
64641;SDS011;59936;51.490;5.436;2022-11-15T17:12:31;4.95;;;3.30;;
64641;SDS011;59936;51.490;5.436;2022-11-15T17:17:33;6.05;;;3.72;;
64641;SDS011;59936;51.490;5.436;2022-11-15T17:22:36;5.43;;;3.70;;
64641;SDS011;59936;51.490;5.436;2022-11-15T17:27:38;5.15;;;3.55;;
64641;SDS011;59936;51.490;5.436;2022-11-15T17:32:40;6.45;;;3.45;;
64641;SDS011;59936;51.490;5.436;2022-11-15T17:37:44;3.88;;;3.38;;
64641;SDS011;59936;51.490;5.436;2022-11-15T17:42:47;12.40;;;4.15;;
64641;SDS011;59936;51.490;5.436;2022-11-15T17:47:49;4.65;;;3.83;;
64641;SDS011;59936;51.490;5.436;2022-11-15T17:52:53;5.38;;;3.50;;
64641;SDS011;59936;51.490;5.436;2022-11-15T17:58:08;3.65;;;2.65;;
64641;SDS011;59936;51.490;5.436;2022-11-15T18:03:13;6.82;;;3.83;;
64641;SDS011;59936;51.490;5.436;2022-11-15T18:08:17;8.02;;;3.65;;
64641;SDS011;59936;51.490;5.436;2022-11-15T18:13:21;6.93;;;4.10;;
64641;SDS011;59936;51.490;5.436;2022-11-15T18:18:22;5.63;;;4.18;;
64641;SDS011;59936;51.490;5.436;2022-11-15T18:23:25;5.57;;;3.55;;
64641;SDS011;59936;51.490;5.436;2022-11-15T18:28:28;6.22;;;4.43;;
64641;SDS011;59936;51.490;5.436;2022-11-15T18:33:32;4.75;;;4.03;;
64641;SDS011;59936;51.490;5.436;2022-11-15T18:38:36;7.13;;;4.43;;
64641;SDS011;59936;51.490;5.436;2022-11-15T18:43:39;7.28;;;4.97;;
64641;SDS011;59936;51.490;5.436;2022-11-15T18:48:42;9.63;;;5.45;;
64641;SDS011;59936;51.490;5.436;2022-11-15T18:53:51;5.68;;;4.22;;
64641;SDS011;59936;51.490;5.436;2022-11-15T18:58:54;6.43;;;5.53;;
64641;SDS011;59936;51.490;5.436;2022-11-15T19:04:01;3.50;;;3.20;;
64641;SDS011;59936;51.490;5.436;2022-11-15T19:09:07;5.80;;;4.75;;
64641;SDS011;59936;51.490;5.436;2022-11-15T19:14:12;7.20;;;5.38;;
64641;SDS011;59936;51.490;5.436;2022-11-15T19:19:17;6.38;;;5.70;;
64641;SDS011;59936;51.490;5.436;2022-11-15T19:24:22;6.68;;;4.10;;
64641;SDS011;59936;51.490;5.436;2022-11-15T19:29:23;4.97;;;3.67;;
64641;SDS011;59936;51.490;5.436;2022-11-15T19:34:25;6.93;;;5.07;;
64641;SDS011;59936;51.490;5.436;2022-11-15T19:39:28;6.05;;;5.40;;
64641;SDS011;59936;51.490;5.436;2022-11-15T19:44:30;7.07;;;5.38;;
64641;SDS011;59936;51.490;5.436;2022-11-15T19:49:31;7.25;;;5.10;;
64641;SDS011;59936;51.490;5.436;2022-11-15T19:54:34;8.98;;;5.82;;
64641;SDS011;59936;51.490;5.436;2022-11-15T19:59:36;3.63;;;3.25;;
64641;SDS011;59936;51.490;5.436;2022-11-15T20:04:39;8.00;;;6.50;;
64641;SDS011;59936;51.490;5.436;2022-11-15T20:09:42;6.57;;;5.15;;
64641;SDS011;59936;51.490;5.436;2022-11-15T20:14:45;9.32;;;5.95;;
64641;SDS011;59936;51.490;5.436;2022-11-15T20:19:46;7.50;;;6.45;;
64641;SDS011;59936;51.490;5.436;2022-11-15T20:24:49;6.82;;;6.15;;
64641;SDS011;59936;51.490;5.436;2022-11-15T20:29:51;7.57;;;6.10;;
64641;SDS011;59936;51.490;5.436;2022-11-15T20:34:56;10.13;;;7.50;;
64641;SDS011;59936;51.490;5.436;2022-11-15T20:39:59;8.57;;;6.80;;
64641;SDS011;59936;51.490;5.436;2022-11-15T20:45:03;10.60;;;8.07;;
64641;SDS011;59936;51.490;5.436;2022-11-15T20:50:06;10.32;;;8.05;;
64641;SDS011;59936;51.490;5.436;2022-11-15T20:55:13;9.00;;;7.90;;
64641;SDS011;59936;51.490;5.436;2022-11-15T21:00:15;12.05;;;8.80;;
64641;SDS011;59936;51.490;5.436;2022-11-15T21:05:21;11.27;;;9.02;;
64641;SDS011;59936;51.490;5.436;2022-11-15T21:10:24;10.57;;;8.18;;
64641;SDS011;59936;51.490;5.436;2022-11-15T21:15:43;11.20;;;5.97;;
64641;SDS011;59936;51.490;5.436;2022-11-15T21:20:45;10.32;;;9.23;;
64641;SDS011;59936;51.490;5.436;2022-11-15T21:25:48;11.43;;;8.75;;
64641;SDS011;59936;51.490;5.436;2022-11-15T21:30:51;14.00;;;9.88;;
64641;SDS011;59936;51.490;5.436;2022-11-15T21:35:56;10.80;;;8.15;;
64641;SDS011;59936;51.490;5.436;2022-11-15T21:41:01;11.90;;;9.15;;
64641;SDS011;59936;51.490;5.436;2022-11-15T21:46:04;11.98;;;9.55;;
64641;SDS011;59936;51.490;5.436;2022-11-15T21:51:08;9.73;;;8.02;;
64641;SDS011;59936;51.490;5.436;2022-11-15T21:56:12;6.25;;;5.25;;
64641;SDS011;59936;51.490;5.436;2022-11-15T22:01:14;11.20;;;7.75;;
64641;SDS011;59936;51.490;5.436;2022-11-15T22:06:42;11.27;;;8.73;;
64641;SDS011;59936;51.490;5.436;2022-11-15T22:12:10;11.13;;;7.78;;
64641;SDS011;59936;51.490;5.436;2022-11-15T22:17:21;9.82;;;7.47;;
64641;SDS011;59936;51.490;5.436;2022-11-15T22:22:46;8.63;;;7.32;;
64641;SDS011;59936;51.490;5.436;2022-11-15T22:27:53;11.68;;;8.13;;
64641;SDS011;59936;51.490;5.436;2022-11-15T22:32:55;9.25;;;8.00;;
64641;SDS011;59936;51.490;5.436;2022-11-15T22:38:00;9.25;;;7.15;;
64641;SDS011;59936;51.490;5.436;2022-11-15T22:43:18;10.32;;;8.07;;
64641;SDS011;59936;51.490;5.436;2022-11-15T22:48:22;9.40;;;7.72;;
64641;SDS011;59936;51.490;5.436;2022-11-15T22:53:27;10.05;;;8.45;;
64641;SDS011;59936;51.490;5.436;2022-11-15T22:58:30;9.85;;;8.20;;
64641;SDS011;59936;51.490;5.436;2022-11-15T23:03:33;6.95;;;6.25;;
64641;SDS011;59936;51.490;5.436;2022-11-15T23:08:35;10.18;;;8.43;;
64641;SDS011;59936;51.490;5.436;2022-11-15T23:13:39;7.68;;;6.60;;
64641;SDS011;59936;51.490;5.436;2022-11-15T23:18:40;9.32;;;7.95;;
64641;SDS011;59936;51.490;5.436;2022-11-15T23:23:42;11.10;;;8.32;;
64641;SDS011;59936;51.490;5.436;2022-11-15T23:28:45;12.50;;;8.35;;
64641;SDS011;59936;51.490;5.436;2022-11-15T23:33:48;11.40;;;8.27;;
64641;SDS011;59936;51.490;5.436;2022-11-15T23:38:58;10.63;;;9.00;;
64641;SDS011;59936;51.490;5.436;2022-11-15T23:44:03;9.48;;;8.05;;
64641;SDS011;59936;51.490;5.436;2022-11-15T23:49:05;12.50;;;8.60;;
64641;SDS011;59936;51.490;5.436;2022-11-15T23:54:07;10.13;;;7.82;;
